createdAt,value
2023-03-30T00:02:19.698Z,76.40
2023-03-30T00:04:52.201Z,77.24
2023-03-30T00:07:21.844Z,77.96
2023-03-30T00:09:50.300Z,77.59
2023-03-30T00:12:24.042Z,78.77
2023-03-30T00:14:54.954Z,79.04
2023-03-30T00:17:33.428Z,78.95
2023-03-30T00:20:08.997Z,78.56
2023-03-30T00:22:39.845Z,79.28
2023-03-30T00:25:12.072Z,79.86
2023-03-30T00:27:54.924Z,80.37
2023-03-30T00:30:27.920Z,80.58
2023-03-30T00:32:59.424Z,80.80
2023-03-30T00:35:30.801Z,81.15
2023-03-30T00:38:06.178Z,81.26
2023-03-30T00:40:43.349Z,81.41
2023-03-30T00:43:25.646Z,81.91
2023-03-30T00:45:59.874Z,82.69
2023-03-30T00:48:37.034Z,82.68
2023-03-30T00:51:16.396Z,83.83
2023-03-30T00:53:49.201Z,82.86
2023-03-30T00:56:23.415Z,83.57
2023-03-30T00:59:01.212Z,83.38
2023-03-30T01:01:39.077Z,84.24
2023-03-30T01:04:11.280Z,84.22
2023-03-30T01:06:43.747Z,84.91
2023-03-30T01:09:15.577Z,84.58
2023-03-30T01:11:45.094Z,85.80
2023-03-30T01:14:17.056Z,86.19
2023-03-30T01:16:52.504Z,85.54
2023-03-30T01:19:43.857Z,85.18
2023-03-30T01:22:40.160Z,86.44
2023-03-30T01:25:39.102Z,86.27
2023-03-30T01:28:36.455Z,85.87
2023-03-30T01:31:42.322Z,86.32
2023-03-30T01:34:36.701Z,86.25
2023-03-30T01:37:45.111Z,85.64
2023-03-30T01:40:20.157Z,86.32
2023-03-30T01:42:59.974Z,86.89
2023-03-30T01:45:37.296Z,86.32
2023-03-30T01:48:15.770Z,86.37
2023-03-30T01:50:52.944Z,86.34
2023-03-30T01:53:27.368Z,86.44
2023-03-30T01:56:05.021Z,86.27
2023-03-30T01:58:37.808Z,86.46
2023-03-30T02:01:10.370Z,86.53
2023-03-30T02:03:42.694Z,86.59
2023-03-30T02:06:24.637Z,86.26
2023-03-30T02:08:59.454Z,86.04
2023-03-30T02:11:35.680Z,86.93
2023-03-30T02:14:13.226Z,87.23
2023-03-30T02:16:47.892Z,87.07
2023-03-30T02:19:22.058Z,86.92
2023-03-30T02:22:07.196Z,88.17
2023-03-30T02:24:39.158Z,87.57
2023-03-30T02:27:11.126Z,88.59
2023-03-30T02:29:43.347Z,89.57
2023-03-30T02:32:21.158Z,89.31
2023-03-30T02:35:05.209Z,91.09
2023-03-30T02:37:48.732Z,90.03
2023-03-30T02:40:44.423Z,92.33
2023-03-30T02:43:32.774Z,93.23
2023-03-30T02:46:32.377Z,93.60
2023-03-30T02:49:10.989Z,94.82
2023-03-30T02:51:48.923Z,95.98
2023-03-30T02:54:31.448Z,95.32
2023-03-30T02:57:51.725Z,95.73
2023-03-30T03:00:49.778Z,97.11
2023-03-30T03:03:29.872Z,98.23
2023-03-30T03:06:05.579Z,99.04
2023-03-30T03:08:41.229Z,100.00
2023-03-30T03:11:25.957Z,100.00
2023-03-30T03:13:58.352Z,100.00
2023-03-30T03:16:45.504Z,100.00
2023-03-30T03:19:22.187Z,100.00
2023-03-30T03:21:55.918Z,100.00
2023-03-30T03:24:29.624Z,100.00
2023-03-30T03:27:17.735Z,100.00
2023-03-30T03:30:24.416Z,100.00
2023-03-30T03:33:08.220Z,100.00
2023-03-30T03:35:39.440Z,100.00
2023-03-30T03:38:18.835Z,100.00
2023-03-30T03:40:57.133Z,100.00
2023-03-30T03:43:34.648Z,100.00
2023-03-30T03:46:05.757Z,100.00
2023-03-30T03:48:43.662Z,100.00
2023-03-30T03:51:15.469Z,100.00
2023-03-30T03:53:50.014Z,100.00
2023-03-30T03:56:23.543Z,100.00
2023-03-30T03:58:54.610Z,100.00
2023-03-30T04:01:23.709Z,100.00
2023-03-30T04:04:01.084Z,100.00
2023-03-30T04:06:30.818Z,100.00
2023-03-30T04:09:02.191Z,100.00
2023-03-30T04:12:01.552Z,100.00
2023-03-30T04:14:50.680Z,99.48
2023-03-30T04:17:33.860Z,97.87
2023-03-30T04:20:28.921Z,97.21
2023-03-30T04:23:23.152Z,94.41
2023-03-30T04:26:30.510Z,92.38
2023-03-30T04:29:21.271Z,93.23
2023-03-30T04:32:21.330Z,94.01
2023-03-30T04:35:12.809Z,93.18
2023-03-30T04:38:22.230Z,92.96
2023-03-30T04:41:17.908Z,92.81
2023-03-30T04:43:49.618Z,92.11
2023-03-30T04:46:42.422Z,91.90
2023-03-30T04:49:47.732Z,91.03
2023-03-30T04:52:47.437Z,91.90
2023-03-30T04:55:37.149Z,90.88
2023-03-30T04:58:38.387Z,91.21
2023-03-30T05:01:45.652Z,90.60
2023-03-30T05:04:44.202Z,90.68
2023-03-30T05:07:32.378Z,89.73
2023-03-30T05:10:21.884Z,89.74
2023-03-30T05:13:25.382Z,90.23
2023-03-30T05:16:22.540Z,90.60
2023-03-30T05:19:09.687Z,90.56
2023-03-30T05:21:53.941Z,91.33
2023-03-30T05:24:41.686Z,90.70
2023-03-30T05:27:36.468Z,90.03
2023-03-30T05:30:31.056Z,90.50
2023-03-30T05:33:25.805Z,89.19
2023-03-30T05:36:19.985Z,88.66
2023-03-30T05:39:14.600Z,88.72
2023-03-30T05:42:01.997Z,88.48
2023-03-30T05:45:10.900Z,87.19
2023-03-30T05:48:08.888Z,87.10
2023-03-30T05:50:40.849Z,87.94
2023-03-30T05:53:16.057Z,87.78
2023-03-30T05:56:23.024Z,87.81
2023-03-30T05:59:16.714Z,88.17
2023-03-30T06:02:19.952Z,87.00
2023-03-30T06:04:56.038Z,87.32
2023-03-30T06:07:25.971Z,86.62
2023-03-30T06:09:59.694Z,87.13
2023-03-30T06:12:31.927Z,86.99
2023-03-30T06:15:02.671Z,86.95
2023-03-30T06:18:06.682Z,87.25
2023-03-30T06:20:41.150Z,86.47
2023-03-30T06:23:11.580Z,86.57
2023-03-30T06:25:44.826Z,86.80
2023-03-30T06:28:16.108Z,85.51
2023-03-30T06:30:49.137Z,85.93
2023-03-30T06:33:26.118Z,85.90
2023-03-30T06:36:12.046Z,86.05
2023-03-30T06:38:48.562Z,85.75
2023-03-30T06:41:28.016Z,85.70
2023-03-30T06:43:58.740Z,86.13
2023-03-30T06:46:36.061Z,85.85
2023-03-30T06:49:05.183Z,85.69
2023-03-30T06:51:54.755Z,85.81
2023-03-30T06:54:24.814Z,86.17
2023-03-30T06:57:08.504Z,85.69
2023-03-30T06:59:40.680Z,85.09
2023-03-30T07:02:33.297Z,86.38
2023-03-30T07:05:25.960Z,86.45
2023-03-30T07:08:19.653Z,85.67
2023-03-30T07:10:54.861Z,85.87
2023-03-30T07:13:29.992Z,85.15
2023-03-30T07:16:04.004Z,85.04
2023-03-30T07:18:44.880Z,84.42
2023-03-30T07:21:22.743Z,84.29
2023-03-30T07:24:02.135Z,85.28
2023-03-30T07:26:41.206Z,84.97
2023-03-30T07:29:20.818Z,84.04
2023-03-30T07:32:07.188Z,84.06
2023-03-30T07:34:42.545Z,83.23
2023-03-30T07:37:20.676Z,82.46
2023-03-30T07:40:08.176Z,83.03
2023-03-30T07:42:58.543Z,83.02
2023-03-30T07:45:30.522Z,82.16
2023-03-30T07:48:02.431Z,82.17
2023-03-30T07:50:33.263Z,81.39
2023-03-30T07:53:05.857Z,81.62
2023-03-30T07:55:43.756Z,81.84
2023-03-30T07:58:22.649Z,82.12
2023-03-30T08:00:54.661Z,81.87
2023-03-30T08:03:48.447Z,81.51
2023-03-30T08:06:22.756Z,81.03
2023-03-30T08:09:04.780Z,80.98
2023-03-30T08:11:39.990Z,79.42
2023-03-30T08:14:17.587Z,80.25
2023-03-30T08:16:45.898Z,79.68
2023-03-30T08:19:15.849Z,80.44
2023-03-30T08:21:52.233Z,79.32
2023-03-30T08:24:20.979Z,78.55
2023-03-30T08:26:56.413Z,77.75
2023-03-30T08:29:34.227Z,76.59
2023-03-30T08:32:03.538Z,76.54
2023-03-30T08:34:34.333Z,76.25
2023-03-30T08:37:05.684Z,76.44
2023-03-30T08:39:39.660Z,76.12
2023-03-30T08:42:18.474Z,76.09
2023-03-30T08:44:55.712Z,75.55
2023-03-30T08:47:33.649Z,75.81
2023-03-30T08:50:14.270Z,76.04
2023-03-30T08:52:55.771Z,75.33
2023-03-30T08:55:35.351Z,75.55
2023-03-30T08:58:18.797Z,75.96
2023-03-30T09:00:57.050Z,76.28
2023-03-30T09:03:33.902Z,76.03
2023-03-30T09:06:09.277Z,74.93
2023-03-30T09:08:40.706Z,73.96
2023-03-30T09:11:13.274Z,73.85
2023-03-30T09:13:46.475Z,73.74
2023-03-30T09:16:21.675Z,72.86
2023-03-30T09:18:52.630Z,73.39
2023-03-30T09:21:31.588Z,72.77
2023-03-30T09:24:02.321Z,73.46
2023-03-30T09:26:39.754Z,74.06
2023-03-30T09:29:18.319Z,74.35
2023-03-30T09:31:53.456Z,74.01
2023-03-30T09:34:30.917Z,74.31
2023-03-30T09:37:04.920Z,75.08
2023-03-30T09:39:38.482Z,75.67
2023-03-30T09:42:37.337Z,75.89
2023-03-30T09:45:23.341Z,76.44
2023-03-30T09:47:55.223Z,77.19
2023-03-30T09:50:29.408Z,77.55
2023-03-30T09:53:04.461Z,77.40
2023-03-30T09:55:34.642Z,77.81
2023-03-30T09:58:17.628Z,77.70
2023-03-30T10:00:57.360Z,78.62
2023-03-30T10:03:29.625Z,78.89
2023-03-30T10:06:07.548Z,78.45
2023-03-30T10:08:52.424Z,78.49
2023-03-30T10:11:26.904Z,78.16
2023-03-30T10:13:58.217Z,78.54
2023-03-30T10:16:35.223Z,78.30
2023-03-30T10:19:21.213Z,78.30
2023-03-30T10:22:05.563Z,77.94
2023-03-30T10:24:37.393Z,78.15
2023-03-30T10:27:11.631Z,77.57
2023-03-30T10:29:46.706Z,76.72
2023-03-30T10:32:20.910Z,76.81
2023-03-30T10:34:56.663Z,77.15
2023-03-30T10:37:31.248Z,77.05
2023-03-30T10:40:06.541Z,77.47
2023-03-30T10:42:37.584Z,77.51
2023-03-30T10:45:10.937Z,77.01
2023-03-30T10:47:53.980Z,76.86
2023-03-30T10:50:32.737Z,76.41
2023-03-30T10:53:13.625Z,76.16
2023-03-30T10:55:48.738Z,76.25
2023-03-30T10:58:27.619Z,75.83
2023-03-30T11:01:12.982Z,76.10
2023-03-30T11:03:50.184Z,75.99
2023-03-30T11:06:27.481Z,75.71
2023-03-30T11:08:59.529Z,75.62
2023-03-30T11:11:37.579Z,75.40
2023-03-30T11:14:10.162Z,75.42
2023-03-30T11:16:47.715Z,75.39
2023-03-30T11:19:25.964Z,75.24
2023-03-30T11:21:59.536Z,75.05
2023-03-30T11:24:31.549Z,74.32
2023-03-30T11:27:05.409Z,73.20
2023-03-30T11:29:40.807Z,73.48
2023-03-30T11:32:17.554Z,73.35
2023-03-30T11:34:58.682Z,73.79
2023-03-30T11:37:37.738Z,73.64
2023-03-30T11:40:18.609Z,72.85
2023-03-30T11:42:51.367Z,72.43
2023-03-30T11:45:40.009Z,72.01
2023-03-30T11:48:32.084Z,72.56
2023-03-30T11:51:21.614Z,72.47
2023-03-30T11:53:58.632Z,74.27
2023-03-30T11:56:39.905Z,75.24
2023-03-30T12:02:13.992Z,77.04
2023-03-30T12:04:48.577Z,76.34
2023-03-30T12:07:34.896Z,75.92
2023-03-30T12:10:08.372Z,75.69
2023-03-30T12:12:40.443Z,74.08
2023-03-30T12:15:27.218Z,72.10
2023-03-30T12:18:01.718Z,72.63
2023-03-30T12:20:39.495Z,71.55
2023-03-30T12:23:32.324Z,71.66
2023-03-30T12:26:16.366Z,72.10
2023-03-30T12:29:15.283Z,72.33
2023-03-30T12:32:11.202Z,72.22
2023-03-30T12:34:47.582Z,72.74
2023-03-30T12:37:26.764Z,72.48
2023-03-30T12:40:06.963Z,72.17
2023-03-30T12:42:46.516Z,71.90
2023-03-30T12:45:37.568Z,72.91
2023-03-30T12:48:24.387Z,73.28
2023-03-30T12:51:10.508Z,74.12
2023-03-30T12:53:56.228Z,75.18
2023-03-30T12:56:41.781Z,76.36
2023-03-30T12:59:45.786Z,77.57
2023-03-30T13:02:43.538Z,79.84
2023-03-30T13:05:28.550Z,81.65
2023-03-30T13:07:57.258Z,83.84
2023-03-30T13:10:42.710Z,84.00
2023-03-30T13:13:27.970Z,85.80
2023-03-30T13:15:58.778Z,87.13
2023-03-30T13:18:58.485Z,87.93
2023-03-30T13:21:28.124Z,88.96
2023-03-30T13:24:03.426Z,89.66
2023-03-30T13:26:54.169Z,89.53
2023-03-30T13:29:33.482Z,90.76
2023-03-30T13:32:16.515Z,91.68
2023-03-30T13:35:06.810Z,92.31
2023-03-30T13:38:19.711Z,93.07
2023-03-30T13:41:04.466Z,93.60
2023-03-30T13:43:48.406Z,93.34
2023-03-30T13:46:33.020Z,93.48
2023-03-30T13:49:24.067Z,93.67
2023-03-30T13:51:55.822Z,93.50
2023-03-30T13:54:27.724Z,94.12
2023-03-30T13:57:00.746Z,94.48
2023-03-30T13:59:35.464Z,94.56
2023-03-30T14:02:12.384Z,95.61
2023-03-30T14:04:48.403Z,96.26
2023-03-30T14:07:22.648Z,97.29
2023-03-30T14:10:16.698Z,97.92
2023-03-30T14:12:49.668Z,98.72
2023-03-30T14:15:21.615Z,99.38
2023-03-30T14:17:57.246Z,99.98
2023-03-30T14:20:41.230Z,99.01
2023-03-30T14:23:18.848Z,97.72
2023-03-30T14:25:48.365Z,96.58
2023-03-30T14:28:28.768Z,95.43
2023-03-30T14:31:06.114Z,94.72
2023-03-30T14:33:44.357Z,93.59
2023-03-30T14:36:24.240Z,93.42
2023-03-30T14:38:56.270Z,93.66
2023-03-30T14:41:27.995Z,93.48
2023-03-30T14:44:01.970Z,93.73
2023-03-30T14:46:37.504Z,93.42
2023-03-30T14:49:08.467Z,93.47
2023-03-30T14:51:41.552Z,92.24
2023-03-30T14:54:15.785Z,91.09
2023-03-30T14:56:54.778Z,90.41
2023-03-30T14:59:33.070Z,90.54
2023-03-30T15:02:11.927Z,90.77
2023-03-30T15:04:47.953Z,89.79
2023-03-30T15:07:20.512Z,90.41
2023-03-30T15:09:58.993Z,89.78
2023-03-30T15:12:29.776Z,89.96
2023-03-30T15:15:02.777Z,89.84
2023-03-30T15:17:33.825Z,89.98
2023-03-30T15:20:07.568Z,89.72
2023-03-30T15:22:42.185Z,89.96
2023-03-30T15:25:17.478Z,90.05
2023-03-30T15:27:56.565Z,90.63
2023-03-30T15:30:30.548Z,91.66
2023-03-30T15:33:09.386Z,92.24
2023-03-30T15:35:48.980Z,92.79
2023-03-30T15:38:22.530Z,93.85
2023-03-30T15:40:53.842Z,93.58
2023-03-30T15:43:28.133Z,94.54
2023-03-30T15:46:01.159Z,94.05
2023-03-30T15:48:40.374Z,95.05
2023-03-30T15:51:14.879Z,95.76
2023-03-30T15:53:54.459Z,97.40
2023-03-30T15:56:34.934Z,98.31
2023-03-30T15:59:05.963Z,98.86
2023-03-30T16:01:47.497Z,100.00
2023-03-30T16:04:26.020Z,100.00
2023-03-30T16:07:13.467Z,100.00
2023-03-30T16:09:44.346Z,100.00
2023-03-30T16:12:16.355Z,99.62
2023-03-30T16:14:46.819Z,99.79
2023-03-30T16:17:21.269Z,100.00
2023-03-30T16:19:53.208Z,100.00
2023-03-30T16:22:26.660Z,100.00
2023-03-30T16:25:01.826Z,100.00
2023-03-30T16:27:40.131Z,100.00
2023-03-30T16:30:19.639Z,100.00
2023-03-30T16:32:54.642Z,100.00
2023-03-30T16:35:26.334Z,100.00
2023-03-30T16:38:01.976Z,100.00
2023-03-30T16:40:33.284Z,100.00
2023-03-30T16:43:09.485Z,100.00
2023-03-30T16:45:46.684Z,100.00
2023-03-30T16:48:30.855Z,100.00
2023-03-30T16:51:10.849Z,100.00
2023-03-30T16:53:47.753Z,100.00
2023-03-30T16:56:22.190Z,100.00
2023-03-30T16:58:53.063Z,100.00
2023-03-30T17:01:23.318Z,100.00
2023-03-30T17:03:53.590Z,100.00
2023-03-30T17:06:34.546Z,100.00
2023-03-30T17:09:17.653Z,100.00
2023-03-30T17:11:50.678Z,100.00
2023-03-30T17:14:34.782Z,100.00
2023-03-30T17:17:16.258Z,100.00
2023-03-30T17:19:56.826Z,100.00
2023-03-30T17:22:34.945Z,100.00
2023-03-30T17:25:10.568Z,100.00
2023-03-30T17:27:47.975Z,100.00
2023-03-30T17:30:21.690Z,98.88
2023-03-30T17:32:52.462Z,98.88
2023-03-30T17:35:23.968Z,97.83
2023-03-30T17:38:17.422Z,97.79
2023-03-30T17:41:14.516Z,97.59
2023-03-30T17:43:49.092Z,97.36
2023-03-30T17:46:19.938Z,96.96
2023-03-30T17:48:59.671Z,97.18
2023-03-30T17:51:39.456Z,96.68
2023-03-30T17:54:20.268Z,96.02
2023-03-30T17:57:09.691Z,95.83
2023-03-30T18:00:09.462Z,95.94
2023-03-30T18:02:40.617Z,95.76
2023-03-30T18:05:21.052Z,95.94
2023-03-30T18:07:54.441Z,95.47
2023-03-30T18:10:27.587Z,94.59
2023-03-30T18:13:08.018Z,94.08
2023-03-30T18:15:52.229Z,93.70
2023-03-30T18:18:36.621Z,94.02
2023-03-30T18:21:13.637Z,93.58
2023-03-30T18:23:54.403Z,93.30
2023-03-30T18:26:39.673Z,91.77
2023-03-30T18:29:23.531Z,91.49
2023-03-30T18:31:54.015Z,91.34
2023-03-30T18:34:36.604Z,90.67
2023-03-30T18:37:15.790Z,90.98
2023-03-30T18:39:57.706Z,91.08
2023-03-30T18:42:34.978Z,90.15
2023-03-30T18:45:19.172Z,91.25
2023-03-30T18:47:53.222Z,92.28
2023-03-30T18:50:45.627Z,91.49
2023-03-30T18:53:40.506Z,89.54
2023-03-30T18:56:15.490Z,89.43
2023-03-30T18:58:55.581Z,88.35
2023-03-30T19:01:27.772Z,87.67
2023-03-30T19:04:17.658Z,86.67
2023-03-30T19:06:58.691Z,87.87
2023-03-30T19:09:42.484Z,87.83
2023-03-30T19:12:27.847Z,87.45
2023-03-30T19:15:17.853Z,88.00
2023-03-30T19:18:09.903Z,88.25
2023-03-30T19:20:44.824Z,88.30
2023-03-30T19:23:18.726Z,88.78
2023-03-30T19:25:59.152Z,89.36
2023-03-30T19:28:31.710Z,89.63
2023-03-30T19:31:21.582Z,89.56
2023-03-30T19:34:12.272Z,89.75
2023-03-30T19:36:50.441Z,89.47
2023-03-30T19:39:33.105Z,90.24
2023-03-30T19:42:08.792Z,89.23
2023-03-30T19:44:46.939Z,90.32
2023-03-30T19:47:20.306Z,90.55
2023-03-30T19:49:57.456Z,89.58
2023-03-30T19:52:31.505Z,88.50
2023-03-30T19:55:13.030Z,88.70
2023-03-30T19:57:48.253Z,89.65
2023-03-30T20:00:20.817Z,89.28
2023-03-30T20:03:04.345Z,88.73
2023-03-30T20:05:36.073Z,89.33
2023-03-30T20:08:22.952Z,87.35
2023-03-30T20:11:07.550Z,88.21
2023-03-30T20:13:46.470Z,88.19
2023-03-30T20:16:25.996Z,88.13
2023-03-30T20:18:58.232Z,87.28
2023-03-30T20:21:37.540Z,87.28
2023-03-30T20:24:09.892Z,87.28
2023-03-30T20:26:49.785Z,87.47
2023-03-30T20:29:23.868Z,87.11
2023-03-30T20:31:53.230Z,85.98
2023-03-30T20:34:28.488Z,86.38
2023-03-30T20:37:02.641Z,85.11
2023-03-30T20:39:31.458Z,84.61
2023-03-30T20:42:02.728Z,84.42
2023-03-30T20:44:32.511Z,83.90
2023-03-30T20:47:05.511Z,83.96
2023-03-30T20:49:42.042Z,83.81
2023-03-30T20:52:12.864Z,84.51
2023-03-30T20:54:44.827Z,84.04
2023-03-30T20:57:21.879Z,83.54
2023-03-30T20:59:53.505Z,83.80
2023-03-30T21:02:21.633Z,83.51
2023-03-30T21:04:52.663Z,83.26
2023-03-30T21:07:27.837Z,81.97
2023-03-30T21:09:57.153Z,81.36
2023-03-30T21:12:29.976Z,81.38
2023-03-30T21:15:01.779Z,80.08
2023-03-30T21:17:31.060Z,79.90
2023-03-30T21:20:01.444Z,80.23
2023-03-30T21:22:33.260Z,80.10
2023-03-30T21:25:02.216Z,79.65
2023-03-30T21:27:31.933Z,79.72
2023-03-30T21:30:04.603Z,81.22
2023-03-30T21:32:33.932Z,82.04
2023-03-30T21:35:05.644Z,83.54
2023-03-30T21:37:36.579Z,83.51
2023-03-30T21:40:05.972Z,83.79
2023-03-30T21:42:40.530Z,84.76
2023-03-30T21:45:22.858Z,85.01
2023-03-30T21:47:56.881Z,83.99
2023-03-30T21:50:28.830Z,84.89
2023-03-30T21:53:04.998Z,85.91
2023-03-30T21:55:33.257Z,86.56
2023-03-30T21:58:03.982Z,86.67
2023-03-30T22:00:35.596Z,87.38
2023-03-30T22:03:05.129Z,87.26
2023-03-30T22:05:47.344Z,87.98
2023-03-30T22:08:27.415Z,86.82
2023-03-30T22:11:04.986Z,87.90
2023-03-30T22:13:36.676Z,87.55
2023-03-30T22:16:08.594Z,88.07
2023-03-30T22:18:39.342Z,88.16
2023-03-30T22:21:15.691Z,87.69
2023-03-30T22:23:59.355Z,87.92
2023-03-30T22:26:37.348Z,87.91
2023-03-30T22:29:14.471Z,88.12
2023-03-30T22:31:45.466Z,87.40
2023-03-30T22:34:15.003Z,88.43
2023-03-30T22:36:44.000Z,87.29
2023-03-30T22:39:21.540Z,86.97
2023-03-30T22:41:53.818Z,86.21
2023-03-30T22:44:24.393Z,86.01
2023-03-30T22:46:55.035Z,85.28
2023-03-30T22:49:27.624Z,84.84
2023-03-30T22:51:56.699Z,85.57
2023-03-30T22:54:42.307Z,84.79
2023-03-30T22:57:14.413Z,84.74
2023-03-30T22:59:54.591Z,84.67
2023-03-30T23:02:33.689Z,84.16
2023-03-30T23:05:08.806Z,83.42
2023-03-30T23:07:40.621Z,83.47
2023-03-30T23:10:25.545Z,83.12
2023-03-30T23:12:54.199Z,83.80
2023-03-30T23:15:23.697Z,83.62
2023-03-30T23:17:52.218Z,84.47
2023-03-30T23:20:23.326Z,83.91
2023-03-30T23:22:57.021Z,84.68
2023-03-30T23:25:32.067Z,83.37
2023-03-30T23:28:03.514Z,83.60
2023-03-30T23:30:44.988Z,83.46
2023-03-30T23:33:13.974Z,83.46
2023-03-30T23:35:53.483Z,83.61
2023-03-30T23:38:23.788Z,84.30
2023-03-30T23:41:02.776Z,84.10
2023-03-30T23:43:31.674Z,84.39
2023-03-30T23:46:05.172Z,84.75
2023-03-30T23:48:34.102Z,83.81
2023-03-30T23:51:06.037Z,83.94
2023-03-30T23:53:40.579Z,84.94
2023-03-30T23:56:14.091Z,85.03
2023-03-30T23:58:43.394Z,84.27
